Time;durP1;ratioP1;P1;durP2;ratioP2;P2;SDS_P1;SDS_P2;PMS_P1;PMS_P2;Temp;Humidity;BMP_temperature;BMP_pressure;BME280_temperature;BME280_humidity;BME280_pressure;Samples;Min_cycle;Max_cycle;Signal;HPM_P1;HPM_P2
2022/08/19 00:01:30;;;;;;;35.53;20.00;;;;;;;;;;6223502;28;20046;-57
2022/08/19 00:04:35;;;;;;;40.50;21.37;;;;;;;;;;6221483;28;20046;-58
2022/08/19 00:07:37;;;;;;;39.10;22.33;;;;;;;;;;6228131;28;20083;-55
2022/08/19 00:10:37;;;;;;;37.00;21.88;;;;;;;;;;6220667;28;20516;-60
2022/08/19 00:13:38;;;;;;;36.57;22.47;;;;;;;;;;6224926;28;20064;-59
2022/08/19 00:16:41;;;;;;;38.23;21.00;;;;;;;;;;6223847;28;20049;-57
2022/08/19 00:19:42;;;;;;;42.10;23.05;;;;;;;;;;6220900;28;20068;-60
2022/08/19 00:22:43;;;;;;;38.73;23.00;;;;;;;;;;6227319;28;20045;-55
2022/08/19 00:25:45;;;;;;;39.75;23.05;;;;;;;;;;6217019;28;20069;-58
2022/08/19 00:28:46;;;;;;;39.53;23.13;;;;;;;;;;6223690;28;20191;-60
2022/08/19 00:31:49;;;;;;;42.63;23.33;;;;;;;;;;6218428;28;20497;-58
2022/08/19 00:34:50;;;;;;;39.65;23.27;;;;;;;;;;6221475;28;20041;-59
2022/08/19 00:37:51;;;;;;;42.75;23.58;;;;;;;;;;6223257;28;20050;-59
2022/08/19 00:40:52;;;;;;;42.10;22.90;;;;;;;;;;6222560;28;20519;-59
2022/08/19 00:44:05;;;;;;;40.97;22.98;;;;;;;;;;6222509;28;20183;-60
2022/08/19 00:47:06;;;;;;;44.83;23.98;;;;;;;;;;6221006;28;20062;-60
2022/08/19 00:50:09;;;;;;;39.65;23.77;;;;;;;;;;6218875;28;20077;-59
2022/08/19 00:53:14;;;;;;;40.33;23.33;;;;;;;;;;6220679;28;20046;-60
2022/08/19 00:56:16;;;;;;;44.75;24.13;;;;;;;;;;6221448;28;20153;-57
2022/08/19 00:59:18;;;;;;;42.15;23.73;;;;;;;;;;6218129;28;20058;-57
2022/08/19 01:02:19;;;;;;;40.25;24.08;;;;;;;;;;6216626;28;20229;-58
2022/08/19 01:05:27;;;;;;;38.58;24.52;;;;;;;;;;6217286;28;20131;-57
2022/08/19 01:08:28;;;;;;;41.47;25.10;;;;;;;;;;6220505;28;20128;-56
2022/08/19 01:11:31;;;;;;;43.53;24.90;;;;;;;;;;6221761;28;20048;-58
2022/08/19 01:14:33;;;;;;;40.50;24.80;;;;;;;;;;6217293;28;20081;-59
2022/08/19 01:17:36;;;;;;;40.35;23.75;;;;;;;;;;6217053;28;20087;-57
2022/08/19 01:20:37;;;;;;;40.65;23.17;;;;;;;;;;6218841;28;20058;-60
2022/08/19 01:23:43;;;;;;;42.10;25.58;;;;;;;;;;6231083;28;20142;-58
2022/08/19 01:26:45;;;;;;;41.95;24.83;;;;;;;;;;6225178;28;20072;-56
2022/08/19 01:29:45;;;;;;;;;;;;;;;;;;6221389;28;20053;-60
2022/08/19 01:32:46;;;;;;;42.85;24.98;;;;;;;;;;6222153;28;19960;-54
2022/08/19 01:35:51;;;;;;;39.93;24.60;;;;;;;;;;6220332;28;20092;-59
2022/08/19 01:38:52;;;;;;;39.33;23.60;;;;;;;;;;6221411;28;20048;-57
2022/08/19 01:41:54;;;;;;;41.20;23.90;;;;;;;;;;6222341;28;20049;-57
2022/08/19 01:44:54;;;;;;;39.10;24.15;;;;;;;;;;6219078;28;20306;-59
2022/08/19 01:47:56;;;;;;;42.93;25.13;;;;;;;;;;6223817;28;20180;-58
2022/08/19 01:50:56;;;;;;;;;;;;;;;;;;6222189;28;20143;-60
2022/08/19 01:53:57;;;;;;;38.67;23.00;;;;;;;;;;6218793;28;19924;-57
2022/08/19 01:57:06;;;;;;;42.47;23.98;;;;;;;;;;6224509;28;20925;-57
2022/08/19 02:00:10;;;;;;;38.10;24.08;;;;;;;;;;6222986;28;20085;-53
2022/08/19 02:03:11;;;;;;;44.10;23.88;;;;;;;;;;6220363;28;20041;-54
2022/08/19 02:06:12;;;;;;;41.60;24.17;;;;;;;;;;6217434;28;20508;-60
2022/08/19 02:09:14;;;;;;;40.92;24.25;;;;;;;;;;6224567;28;20302;-50
2022/08/19 02:12:14;;;;;;;;;;;;;;;;;;6222202;28;20420;-59
2022/08/19 02:15:16;;;;;;;37.35;22.98;;;;;;;;;;6218731;28;19925;-57
2022/08/19 02:18:17;;;;;;;36.17;23.65;;;;;;;;;;6220813;28;20053;-54
2022/08/19 02:21:20;;;;;;;43.43;24.77;;;;;;;;;;6220924;28;20135;-57
2022/08/19 02:24:21;;;;;;;41.88;25.05;;;;;;;;;;6221529;28;20061;-53
2022/08/19 02:27:22;;;;;;;40.90;25.02;;;;;;;;;;6218298;28;20188;-60
2022/08/19 02:30:24;;;;;;;40.00;24.75;;;;;;;;;;6218401;28;20498;-55
2022/08/19 02:33:25;;;;;;;39.60;24.48;;;;;;;;;;6220159;28;20050;-59
2022/08/19 02:36:26;;;;;;;43.40;24.03;;;;;;;;;;6218498;28;20038;-60
2022/08/19 02:39:26;;;;;;;41.22;24.35;;;;;;;;;;6219042;28;20144;-59
2022/08/19 02:42:27;;;;;;;44.20;25.57;;;;;;;;;;6220057;28;20049;-58
2022/08/19 02:45:32;;;;;;;43.33;24.33;;;;;;;;;;6216811;28;20415;-60
2022/08/19 02:48:33;;;;;;;44.88;24.77;;;;;;;;;;6221824;28;20053;-57
2022/08/19 02:51:41;;;;;;;47.37;25.60;;;;;;;;;;6219613;28;20069;-58
2022/08/19 02:54:43;;;;;;;46.40;25.77;;;;;;;;;;6220611;28;20405;-59
2022/08/19 02:57:44;;;;;;;47.40;26.05;;;;;;;;;;6222538;28;20113;-60
2022/08/19 03:00:48;;;;;;;50.30;26.77;;;;;;;;;;6223878;28;20037;-53
2022/08/19 03:03:50;;;;;;;48.08;26.88;;;;;;;;;;6223598;28;20181;-54
2022/08/19 03:06:51;;;;;;;50.70;26.23;;;;;;;;;;6222404;28;20526;-57
2022/08/19 03:09:52;;;;;;;54.42;28.30;;;;;;;;;;6224405;28;20038;-55
2022/08/19 03:12:53;;;;;;;48.40;25.47;;;;;;;;;;6223853;28;20053;-60
2022/08/19 03:15:53;;;;;;;51.50;26.97;;;;;;;;;;6222914;28;20302;-60
2022/08/19 03:18:56;;;;;;;47.37;24.73;;;;;;;;;;6225700;28;20097;-56
2022/08/19 03:21:58;;;;;;;47.35;24.35;;;;;;;;;;6225394;28;20072;-57
2022/08/19 03:24:58;;;;;;;47.63;25.98;;;;;;;;;;6222932;28;20440;-60
2022/08/19 03:27:59;;;;;;;47.85;25.00;;;;;;;;;;6234134;28;20056;-59
2022/08/19 03:31:03;;;;;;;50.30;26.43;;;;;;;;;;6240370;28;20047;-60
2022/08/19 03:34:04;;;;;;;51.17;26.77;;;;;;;;;;6231591;28;20105;-59
2022/08/19 03:37:09;;;;;;;45.80;25.40;;;;;;;;;;6220553;28;20058;-59
2022/08/19 03:40:09;;;;;;;42.90;25.40;;;;;;;;;;6220601;28;20129;-59
2022/08/19 03:43:10;;;;;;;45.53;25.10;;;;;;;;;;6221766;28;20038;-56
2022/08/19 03:46:16;;;;;;;44.30;25.20;;;;;;;;;;6223891;28;20557;-60
2022/08/19 03:49:17;;;;;;;39.50;24.20;;;;;;;;;;6221789;28;20073;-58
2022/08/19 03:52:18;;;;;;;42.33;24.17;;;;;;;;;;6219947;28;20141;-60
2022/08/19 03:55:19;;;;;;;41.53;24.10;;;;;;;;;;6221117;28;20692;-60
2022/08/19 03:58:20;;;;;;;39.95;24.95;;;;;;;;;;6222161;28;20065;-58
2022/08/19 04:01:23;;;;;;;40.47;23.42;;;;;;;;;;6224720;28;20037;-51
2022/08/19 04:04:24;;;;;;;37.83;23.83;;;;;;;;;;6222700;28;20116;-59
2022/08/19 04:07:25;;;;;;;44.20;24.60;;;;;;;;;;6216582;28;20045;-57
2022/08/19 04:10:28;;;;;;;44.50;25.03;;;;;;;;;;6220087;28;20074;-57
2022/08/19 04:13:28;;;;;;;40.95;23.10;;;;;;;;;;6224083;28;20074;-57
2022/08/19 04:16:29;;;;;;;38.77;24.00;;;;;;;;;;6231169;28;20411;-59
2022/08/19 04:19:30;;;;;;;43.13;23.53;;;;;;;;;;6219747;28;20071;-59
2022/08/19 04:22:30;;;;;;;41.85;23.88;;;;;;;;;;6240456;28;20076;-59
2022/08/19 04:25:42;;;;;;;40.80;24.17;;;;;;;;;;6222526;28;20050;-60
2022/08/19 04:28:43;;;;;;;;;;;;;;;;;;6218562;28;20099;-59
2022/08/19 04:31:44;;;;;;;44.33;23.77;;;;;;;;;;6222286;28;20794;-55
2022/08/19 04:34:45;;;;;;;;;;;;;;;;;;6221260;28;20128;-53
2022/08/19 04:37:45;;;;;;;40.92;23.35;;;;;;;;;;6214777;28;19936;-51
2022/08/19 04:44:08;;;;;;;39.47;21.77;;;;;;;;;;6217080;28;20069;-59
2022/08/19 04:47:08;;;;;;;39.50;22.77;;;;;;;;;;6219241;28;20160;-59
2022/08/19 04:50:11;;;;;;;39.00;22.63;;;;;;;;;;6221552;28;20042;-57
2022/08/19 04:53:11;;;;;;;40.10;23.15;;;;;;;;;;6220807;28;20164;-59
2022/08/19 04:56:14;;;;;;;47.43;24.10;;;;;;;;;;6223788;28;20048;-55
2022/08/19 04:59:16;;;;;;;46.72;23.67;;;;;;;;;;6220960;28;20050;-55
2022/08/19 05:02:16;;;;;;;39.45;23.30;;;;;;;;;;6222039;28;20096;-59
2022/08/19 05:05:17;;;;;;;41.50;23.50;;;;;;;;;;6221247;28;20041;-59
2022/08/19 05:08:21;;;;;;;38.67;22.43;;;;;;;;;;6220836;28;20057;-60
2022/08/19 05:11:28;;;;;;;44.83;24.55;;;;;;;;;;6219561;28;20132;-60
2022/08/19 05:14:29;;;;;;;44.40;23.95;;;;;;;;;;6218677;28;20088;-58
2022/08/19 05:17:29;;;;;;;47.10;25.17;;;;;;;;;;6218556;28;20053;-59
2022/08/19 05:23:49;;;;;;;36.80;21.88;;;;;;;;;;6219363;28;20132;-58
2022/08/19 05:26:51;;;;;;;40.57;21.60;;;;;;;;;;6220760;28;20045;-59
2022/08/19 05:29:52;;;;;;;36.83;21.92;;;;;;;;;;6218405;28;20057;-60
2022/08/19 05:32:53;;;;;;;37.30;21.80;;;;;;;;;;6221071;28;20906;-57
2022/08/19 05:35:54;;;;;;;42.03;21.98;;;;;;;;;;6219491;28;20102;-59
2022/08/19 05:38:55;;;;;;;41.77;22.40;;;;;;;;;;6221698;28;20052;-59
2022/08/19 05:41:59;;;;;;;41.80;21.85;;;;;;;;;;6216345;28;20096;-60
2022/08/19 05:44:59;;;;;;;41.08;21.63;;;;;;;;;;6223715;28;20048;-60
2022/08/19 05:48:01;;;;;;;41.08;22.90;;;;;;;;;;6221472;28;20168;-56
2022/08/19 05:51:08;;;;;;;39.30;21.77;;;;;;;;;;6214894;28;20049;-59
2022/08/19 05:54:11;;;;;;;35.90;22.08;;;;;;;;;;6218695;28;20053;-59
2022/08/19 05:57:11;;;;;;;37.45;21.75;;;;;;;;;;6220779;28;20045;-57
2022/08/19 06:00:12;;;;;;;36.17;22.37;;;;;;;;;;6217207;28;20444;-55
2022/08/19 06:03:13;;;;;;;42.33;22.38;;;;;;;;;;6221896;28;20042;-59
2022/08/19 06:06:15;;;;;;;46.20;22.60;;;;;;;;;;6221109;28;20049;-56
2022/08/19 06:09:16;;;;;;;33.72;21.55;;;;;;;;;;6219384;28;20053;-59
2022/08/19 06:12:17;;;;;;;38.57;22.43;;;;;;;;;;6222001;28;20103;-59
2022/08/19 06:15:17;;;;;;;35.20;22.00;;;;;;;;;;6213930;28;20048;-56
2022/08/19 06:18:19;;;;;;;31.47;20.13;;;;;;;;;;6223687;28;20046;-63
2022/08/19 06:21:22;;;;;;;33.53;21.02;;;;;;;;;;6233974;28;20041;-60
2022/08/19 06:24:25;;;;;;;36.17;20.63;;;;;;;;;;6225204;28;20576;-56
2022/08/19 06:27:26;;;;;;;33.65;20.30;;;;;;;;;;6231869;28;20054;-60
2022/08/19 06:30:27;;;;;;;30.15;20.17;;;;;;;;;;6236130;28;20041;-56
2022/08/19 06:33:28;;;;;;;33.15;20.30;;;;;;;;;;6240537;28;20052;-59
2022/08/19 06:36:41;;;;;;;32.78;20.73;;;;;;;;;;6240870;28;20559;-56
2022/08/19 06:39:43;;;;;;;32.83;20.35;;;;;;;;;;6236051;28;20048;-58
2022/08/19 06:42:44;;;;;;;37.20;21.35;;;;;;;;;;6241892;28;20041;-55
2022/08/19 06:45:46;;;;;;;38.03;21.83;;;;;;;;;;6241599;28;20761;-55
2022/08/19 06:48:47;;;;;;;38.55;20.98;;;;;;;;;;6239479;28;21308;-59
2022/08/19 06:51:49;;;;;;;37.03;21.65;;;;;;;;;;6234384;28;20077;-55
2022/08/19 06:54:49;;;;;;;38.67;21.90;;;;;;;;;;6232004;28;20068;-59
2022/08/19 06:57:52;;;;;;;36.63;21.77;;;;;;;;;;6243257;28;20454;-57
2022/08/19 07:00:53;;;;;;;45.63;21.30;;;;;;;;;;6237088;28;20042;-59
2022/08/19 07:03:53;;;;;;;36.13;22.13;;;;;;;;;;6234386;28;20512;-55
2022/08/19 07:07:08;;;;;;;32.50;21.03;;;;;;;;;;6222440;28;20048;-59
2022/08/19 07:10:09;;;;;;;34.78;21.15;;;;;;;;;;6233271;28;20448;-59
2022/08/19 07:13:11;;;;;;;34.45;20.98;;;;;;;;;;6235408;28;20091;-59
2022/08/19 07:16:14;;;;;;;;;;;;;;;;;;6237733;28;20437;-58
2022/08/19 07:19:17;;;;;;;34.30;20.80;;;;;;;;;;6237666;28;20028;-59
2022/08/19 07:22:17;;;;;;;34.83;21.00;;;;;;;;;;6242360;28;20096;-57
2022/08/19 07:25:20;;;;;;;33.72;20.98;;;;;;;;;;6240596;28;20054;-56
2022/08/19 07:28:22;;;;;;;36.70;20.70;;;;;;;;;;6242016;28;20139;-54
2022/08/19 07:31:25;;;;;;;34.30;21.48;;;;;;;;;;6239053;28;20530;-60
2022/08/19 07:34:27;;;;;;;31.33;20.45;;;;;;;;;;6233554;28;20056;-58
2022/08/19 07:37:28;;;;;;;39.55;21.48;;;;;;;;;;6223552;28;20087;-59
2022/08/19 07:40:29;;;;;;;35.83;22.13;;;;;;;;;;6221999;28;20037;-54
2022/08/19 07:43:30;;;;;;;33.38;21.67;;;;;;;;;;6220981;28;20391;-50
2022/08/19 07:46:37;;;;;;;33.63;21.67;;;;;;;;;;6236859;28;20049;-49
2022/08/19 07:49:38;;;;;;;34.10;21.55;;;;;;;;;;6241673;28;20049;-51
2022/08/19 07:52:39;;;;;;;38.33;21.77;;;;;;;;;;6239652;28;20091;-54
2022/08/19 07:55:39;;;;;;;;;;;;;;;;;;6237941;28;20104;-59
2022/08/19 07:58:43;;;;;;;39.30;21.93;;;;;;;;;;6235468;28;20031;-60
2022/08/19 08:01:44;;;;;;;33.60;21.38;;;;;;;;;;6223277;28;20049;-55
2022/08/19 08:11:23;;;;;;;34.15;21.77;;;;;;;;;;6218693;28;20552;-61
2022/08/19 08:14:28;;;;;;;37.03;22.33;;;;;;;;;;6218590;28;20046;-61
2022/08/19 08:17:29;;;;;;;40.00;22.58;;;;;;;;;;6215282;28;20050;-61
2022/08/19 08:20:30;;;;;;;36.80;22.52;;;;;;;;;;6221039;28;20095;-61
2022/08/19 08:23:31;;;;;;;35.00;21.73;;;;;;;;;;6219612;28;20045;-55
2022/08/19 08:26:32;;;;;;;31.92;20.85;;;;;;;;;;6213877;28;20072;-52
2022/08/19 08:29:33;;;;;;;36.28;21.38;;;;;;;;;;6220136;28;20044;-57
2022/08/19 08:32:35;;;;;;;36.42;21.20;;;;;;;;;;6220000;28;20471;-55
2022/08/19 08:35:35;;;;;;;;;;;;;;;;;;6219750;28;21609;-57
2022/08/19 08:38:37;;;;;;;32.93;20.03;;;;;;;;;;6218468;28;19925;-61
2022/08/19 08:42:09;;;;;;;31.40;18.85;;;;;;;;;;6216257;28;20046;-51
2022/08/19 08:45:16;;;;;;;30.48;18.40;;;;;;;;;;6218439;28;20056;-58
2022/08/19 08:48:42;;;;;;;30.73;17.45;;;;;;;;;;6217018;28;20124;-59
2022/08/19 08:51:57;;;;;;;26.02;17.55;;;;;;;;;;6216669;28;20059;-53
2022/08/19 08:55:02;;;;;;;31.92;16.90;;;;;;;;;;6200302;28;20112;-59
2022/08/19 08:58:15;;;;;;;29.27;18.15;;;;;;;;;;6219279;28;20128;-63
2022/08/19 09:01:16;;;;;;;26.70;18.02;;;;;;;;;;6214958;28;20069;-54
2022/08/19 09:04:18;;;;;;;31.67;17.90;;;;;;;;;;6218092;28;20060;-61
2022/08/19 09:07:40;;;;;;;31.05;18.52;;;;;;;;;;6214820;28;20531;-62
2022/08/19 09:10:46;;;;;;;26.85;15.90;;;;;;;;;;6219835;28;20136;-53
2022/08/19 09:13:58;;;;;;;25.02;16.85;;;;;;;;;;6231463;28;20113;-61
2022/08/19 09:16:59;;;;;;;29.67;16.42;;;;;;;;;;6217888;28;20264;-62
2022/08/19 09:20:07;;;;;;;35.95;16.48;;;;;;;;;;6215462;28;20516;-60
2022/08/19 09:23:10;;;;;;;30.65;17.65;;;;;;;;;;6215025;28;20074;-53
2022/08/19 09:26:14;;;;;;;27.08;17.67;;;;;;;;;;6217432;28;20552;-54
2022/08/19 09:29:15;;;;;;;32.92;16.58;;;;;;;;;;6223634;28;20084;-50
2022/08/19 09:32:17;;;;;;;27.93;18.33;;;;;;;;;;6234035;28;20053;-52
2022/08/19 09:35:19;;;;;;;26.63;18.50;;;;;;;;;;6214151;28;20056;-54
2022/08/19 09:38:21;;;;;;;31.60;18.50;;;;;;;;;;6215746;28;20064;-60
2022/08/19 09:41:24;;;;;;;30.23;18.63;;;;;;;;;;6216769;28;20145;-59
2022/08/19 09:44:25;;;;;;;27.90;17.50;;;;;;;;;;6215917;28;20604;-57
2022/08/19 09:47:26;;;;;;;31.08;18.38;;;;;;;;;;6215897;28;20087;-58
2022/08/19 09:50:26;;;;;;;33.77;16.40;;;;;;;;;;6214027;28;20645;-60
2022/08/19 09:53:28;;;;;;;30.85;16.88;;;;;;;;;;6213781;28;20077;-58
2022/08/19 09:56:30;;;;;;;26.42;17.35;;;;;;;;;;6214383;28;20054;-61
2022/08/19 09:59:30;;;;;;;34.22;18.20;;;;;;;;;;6220661;28;20140;-55
2022/08/19 10:02:31;;;;;;;32.45;17.80;;;;;;;;;;6212148;28;20065;-62
2022/08/19 10:05:50;;;;;;;26.77;16.35;;;;;;;;;;6213798;28;20804;-62
2022/08/19 10:08:52;;;;;;;32.08;17.42;;;;;;;;;;6231392;28;20484;-58
2022/08/19 10:11:52;;;;;;;30.17;18.35;;;;;;;;;;6235176;28;20492;-62
2022/08/19 10:14:54;;;;;;;31.42;18.42;;;;;;;;;;6233610;28;20038;-62
2022/08/19 10:17:55;;;;;;;30.63;19.40;;;;;;;;;;6234689;28;20179;-57
2022/08/19 10:21:05;;;;;;;;;;;;;;;;;;6237875;28;20053;-62
2022/08/19 10:24:05;;;;;;;31.73;19.17;;;;;;;;;;6231507;28;20391;-62
2022/08/19 10:27:06;;;;;;;31.25;19.40;;;;;;;;;;6225462;28;20050;-61
2022/08/19 10:30:08;;;;;;;28.48;18.48;;;;;;;;;;6216037;28;20172;-62
2022/08/19 10:33:08;;;;;;;34.38;19.30;;;;;;;;;;6218138;28;20576;-62
2022/08/19 10:36:11;;;;;;;;;;;;;;;;;;6216514;28;20045;-60
2022/08/19 10:39:12;;;;;;;32.72;19.67;;;;;;;;;;6214499;28;20955;-58
2022/08/19 10:42:13;;;;;;;35.10;18.33;;;;;;;;;;6219952;28;20511;-60
2022/08/19 10:45:14;;;;;;;;;;;;;;;;;;6228130;28;20045;-60
2022/08/19 10:48:14;;;;;;;26.63;17.40;;;;;;;;;;6234440;28;19933;-58
2022/08/19 10:57:54;;;;;;;29.25;15.82;;;;;;;;;;6233984;28;20045;-60
2022/08/19 11:00:56;;;;;;;;;;;;;;;;;;6236069;28;20037;-54
2022/08/19 11:03:57;;;;;;;26.52;15.60;;;;;;;;;;6221821;28;20283;-56
2022/08/19 11:06:58;;;;;;;;;;;;;;;;;;6215249;28;20099;-60
2022/08/19 11:09:58;;;;;;;31.50;15.73;;;;;;;;;;6219544;28;20701;-56
2022/08/19 11:13:00;;;;;;;;;;;;;;;;;;6225532;28;20056;-56
2022/08/19 11:16:02;;;;;;;;;;;;;;;;;;6225221;28;19929;-63
2022/08/19 11:19:03;;;;;;;32.70;15.52;;;;;;;;;;6219421;28;20020;-63
2022/08/19 11:22:03;;;;;;;;;;;;;;;;;;6217044;28;20064;-62
2022/08/19 11:25:05;;;;;;;26.73;15.47;;;;;;;;;;6221288;28;19991;-58
2022/08/19 11:28:05;;;;;;;;;;;;;;;;;;6227683;28;20061;-61
2022/08/19 11:31:17;;;;;;;32.07;16.10;;;;;;;;;;6229924;28;20050;-62
2022/08/19 11:34:21;;;;;;;31.60;16.38;;;;;;;;;;6227077;28;20107;-62
2022/08/19 11:37:21;;;;;;;32.53;16.23;;;;;;;;;;6225915;28;20154;-63
2022/08/19 11:40:22;;;;;;;;;;;;;;;;;;6229570;28;20053;-55
2022/08/19 11:43:23;;;;;;;23.77;15.47;;;;;;;;;;6226936;28;19929;-62
2022/08/19 11:46:24;;;;;;;;;;;;;;;;;;6221429;28;20050;-61
2022/08/19 11:49:25;;;;;;;27.95;15.18;;;;;;;;;;6217982;28;19986;-59
2022/08/19 11:52:25;;;;;;;;;;;;;;;;;;6218866;28;20049;-58
2022/08/19 11:55:26;;;;;;;31.57;15.47;;;;;;;;;;6214619;28;19935;-61
2022/08/19 11:58:26;;;;;;;;;;;;;;;;;;6214586;28;20072;-62
2022/08/19 12:01:27;;;;;;;25.00;15.00;;;;;;;;;;6215065;28;20289;-61
2022/08/19 12:04:28;;;;;;;;;;;;;;;;;;6215568;28;20232;-61
2022/08/19 12:07:32;;;;;;;24.23;14.85;;;;;;;;;;6213820;28;19975;-62
2022/08/19 12:10:35;;;;;;;30.25;15.88;;;;;;;;;;6216240;28;21324;-60
2022/08/19 12:13:36;;;;;;;28.30;15.18;;;;;;;;;;6218129;28;21493;-58
2022/08/19 12:16:37;;;;;;;28.23;16.70;;;;;;;;;;6219873;28;20168;-60
2022/08/19 12:19:39;;;;;;;;;;;;;;;;;;6217476;28;20049;-54
2022/08/19 12:22:42;;;;;;;35.97;15.30;;;;;;;;;;6217375;28;21453;-53
2022/08/19 12:25:52;;;;;;;28.48;14.82;;;;;;;;;;6214835;28;20149;-53
2022/08/19 12:28:53;;;;;;;28.38;15.23;;;;;;;;;;6216269;28;20053;-57
2022/08/19 12:31:54;;;;;;;26.77;15.10;;;;;;;;;;6218447;28;20053;-54
2022/08/19 12:34:55;;;;;;;28.90;15.73;;;;;;;;;;6217601;28;20050;-52
2022/08/19 12:37:55;;;;;;;;;;;;;;;;;;6220175;28;20440;-60
2022/08/19 12:40:56;;;;;;;29.27;15.03;;;;;;;;;;6215056;28;20426;-61
2022/08/19 12:43:56;;;;;;;;;;;;;;;;;;6217444;28;20053;-62
2022/08/19 12:46:58;;;;;;;23.00;13.53;;;;;;;;;;6215922;28;21725;-57
2022/08/19 12:49:58;;;;;;;28.48;13.68;;;;;;;;;;6216935;28;20066;-59
2022/08/19 12:52:59;;;;;;;31.90;14.93;;;;;;;;;;6215852;28;20084;-60
2022/08/19 12:56:00;;;;;;;;;;;;;;;;;;6215884;28;20618;-63
2022/08/19 12:59:02;;;;;;;33.20;14.40;;;;;;;;;;6214895;28;19925;-59
2022/08/19 13:02:06;;;;;;;26.10;14.57;;;;;;;;;;6218594;28;20056;-55
2022/08/19 13:05:09;;;;;;;26.25;14.40;;;;;;;;;;6216860;28;20516;-59
2022/08/19 13:08:11;;;;;;;32.80;14.70;;;;;;;;;;6211200;28;20046;-59
2022/08/19 13:11:17;;;;;;;32.17;14.73;;;;;;;;;;6200487;28;20137;-54
2022/08/19 13:14:18;;;;;;;32.08;15.90;;;;;;;;;;6214753;28;20508;-52
2022/08/19 13:17:20;;;;;;;29.90;14.00;;;;;;;;;;6214439;28;20080;-59
2022/08/19 13:20:21;;;;;;;30.58;13.93;;;;;;;;;;6214992;28;20504;-57
2022/08/19 13:23:22;;;;;;;35.95;14.95;;;;;;;;;;6215266;28;20046;-60
2022/08/19 13:26:23;;;;;;;32.45;15.30;;;;;;;;;;6216748;28;20833;-54
2022/08/19 13:36:02;;;;;;;32.00;15.18;;;;;;;;;;6219265;28;20225;-59
2022/08/19 13:39:04;;;;;;;31.42;15.20;;;;;;;;;;6219934;28;20127;-60
2022/08/19 13:42:05;;;;;;;30.33;15.50;;;;;;;;;;6222973;28;20460;-58
2022/08/19 13:45:07;;;;;;;28.95;15.25;;;;;;;;;;6224781;28;20071;-56
2022/08/19 13:48:08;;;;;;;35.47;14.48;;;;;;;;;;6226629;28;20463;-55
2022/08/19 13:51:10;;;;;;;27.92;14.98;;;;;;;;;;6220763;28;20128;-56
2022/08/19 13:54:11;;;;;;;29.35;15.93;;;;;;;;;;6219339;28;20410;-57
2022/08/19 13:57:13;;;;;;;33.10;15.90;;;;;;;;;;6218103;28;20136;-60
2022/08/19 14:00:17;;;;;;;40.40;15.77;;;;;;;;;;6213146;28;22422;-57
2022/08/19 14:03:18;;;;;;;28.38;15.88;;;;;;;;;;6214947;28;20431;-61
2022/08/19 14:06:19;;;;;;;36.20;15.45;;;;;;;;;;6217110;28;20096;-60
2022/08/19 14:09:20;;;;;;;29.73;16.10;;;;;;;;;;6214846;28;20545;-54
2022/08/19 14:12:21;;;;;;;31.90;16.25;;;;;;;;;;6213988;28;20045;-63
2022/08/19 14:15:23;;;;;;;31.77;15.70;;;;;;;;;;6216544;28;20041;-58
2022/08/19 14:18:24;;;;;;;31.13;15.18;;;;;;;;;;6216098;28;20052;-56
2022/08/19 14:21:25;;;;;;;36.80;16.00;;;;;;;;;;6215638;28;20049;-57
2022/08/19 14:24:26;;;;;;;30.25;15.65;;;;;;;;;;6215858;28;20504;-62
2022/08/19 14:27:27;;;;;;;28.35;15.23;;;;;;;;;;6217654;28;20049;-54
2022/08/19 14:30:32;;;;;;;36.05;16.00;;;;;;;;;;6199818;28;20985;-57
2022/08/19 14:33:32;;;;;;;30.13;15.43;;;;;;;;;;6215416;28;20156;-61
2022/08/19 14:36:34;;;;;;;32.38;15.60;;;;;;;;;;6217960;28;20084;-58
2022/08/19 14:39:34;;;;;;;32.17;15.85;;;;;;;;;;6216971;28;20129;-61
2022/08/19 14:42:35;;;;;;;31.38;16.40;;;;;;;;;;6218016;28;20061;-57
2022/08/19 14:45:38;;;;;;;32.55;16.25;;;;;;;;;;6214714;28;20092;-61
2022/08/19 14:48:38;;;;;;;38.58;16.20;;;;;;;;;;6218821;28;20144;-55
2022/08/19 14:51:39;;;;;;;35.78;17.17;;;;;;;;;;6220773;28;20080;-55
2022/08/19 14:54:39;;;;;;;33.72;16.20;;;;;;;;;;6224441;28;20044;-59
2022/08/19 14:57:41;;;;;;;31.95;16.67;;;;;;;;;;6222244;28;20057;-59
2022/08/19 15:00:42;;;;;;;35.75;16.52;;;;;;;;;;6220306;28;20060;-53
2022/08/19 15:03:42;;;;;;;33.70;17.55;;;;;;;;;;6222659;28;20042;-62
2022/08/19 15:06:43;;;;;;;35.85;17.65;;;;;;;;;;6223280;28;20061;-56
2022/08/19 15:09:43;;;;;;;36.10;17.05;;;;;;;;;;6222892;28;20057;-58
2022/08/19 15:12:44;;;;;;;36.75;18.25;;;;;;;;;;6218123;28;20087;-59
2022/08/19 15:15:46;;;;;;;37.15;19.13;;;;;;;;;;6219784;28;20054;-52
2022/08/19 15:18:51;;;;;;;41.25;19.13;;;;;;;;;;6225391;28;20048;-54
2022/08/19 15:21:54;;;;;;;40.88;19.15;;;;;;;;;;6224420;28;20038;-52
2022/08/19 15:24:55;;;;;;;39.72;19.45;;;;;;;;;;6229341;28;20037;-54
2022/08/19 15:27:56;;;;;;;39.38;18.17;;;;;;;;;;6229224;28;20060;-51
2022/08/19 15:30:56;;;;;;;35.35;17.58;;;;;;;;;;6226386;28;20058;-55
2022/08/19 15:33:57;;;;;;;35.28;16.92;;;;;;;;;;6225554;28;20098;-54
2022/08/19 15:36:58;;;;;;;;;;;;;;;;;;6225553;28;20061;-57
2022/08/19 15:39:59;;;;;;;38.10;14.27;;;;;;;;;;6223565;28;19935;-53
2022/08/19 15:43:00;;;;;;;35.47;13.77;;;;;;;;;;6225913;28;20045;-51
2022/08/19 15:46:01;;;;;;;;;;;;;;;;;;6223826;28;20054;-57
2022/08/19 15:49:02;;;;;;;31.87;15.50;;;;;;;;;;6224761;28;20744;-51
2022/08/19 15:52:04;;;;;;;33.15;15.00;;;;;;;;;;6223729;28;20056;-50
2022/08/19 15:55:06;;;;;;;37.13;17.13;;;;;;;;;;6221765;28;20104;-49
2022/08/19 16:07:55;;;;;;;32.53;15.60;;;;;;;;;;6212795;28;20060;-61
2022/08/19 16:10:55;;;;;;;;;;;;;;;;;;6222992;28;20109;-51
2022/08/19 16:13:57;;;;;;;36.63;15.33;;;;;;;;;;6222516;28;19929;-52
2022/08/19 16:16:58;;;;;;;33.95;16.67;;;;;;;;;;6227179;28;20231;-50
2022/08/19 16:19:59;;;;;;;36.67;17.08;;;;;;;;;;6225970;28;20041;-57
2022/08/19 16:23:02;;;;;;;;;;;;;;;;;;6222846;28;20057;-55
2022/08/19 16:26:02;;;;;;;31.90;16.58;;;;;;;;;;6225565;28;20367;-56
2022/08/19 16:29:03;;;;;;;;;;;;;;;;;;6223435;28;20115;-50
2022/08/19 16:32:08;;;;;;;40.70;17.57;;;;;;;;;;6221960;28;19929;-54
2022/08/19 16:35:09;;;;;;;30.60;17.35;;;;;;;;;;6217637;28;20815;-56
2022/08/19 16:38:10;;;;;;;37.05;17.23;;;;;;;;;;6220252;28;20069;-53
2022/08/19 16:41:13;;;;;;;;;;;;;;;;;;6221627;28;20121;-52
2022/08/19 16:44:18;;;;;;;39.92;18.52;;;;;;;;;;6219938;28;20020;-58
2022/08/19 16:47:19;;;;;;;38.85;17.90;;;;;;;;;;6202751;28;20054;-56
2022/08/19 16:50:20;;;;;;;;;;;;;;;;;;6199573;28;20049;-54
2022/08/19 16:53:25;;;;;;;40.42;18.75;;;;;;;;;;6198928;28;19929;-54
2022/08/19 16:56:27;;;;;;;33.35;18.08;;;;;;;;;;6202703;28;20184;-56
2022/08/19 16:59:28;;;;;;;40.30;18.35;;;;;;;;;;6204560;28;20049;-54
2022/08/19 17:02:28;;;;;;;32.43;17.80;;;;;;;;;;6204200;28;20042;-54
2022/08/19 17:05:29;;;;;;;37.03;17.50;;;;;;;;;;6199400;28;21208;-58
2022/08/19 17:08:31;;;;;;;34.78;17.00;;;;;;;;;;6204100;28;20058;-64
2022/08/19 17:11:33;;;;;;;38.78;17.67;;;;;;;;;;6201029;28;20038;-53
2022/08/19 17:14:33;;;;;;;33.40;17.80;;;;;;;;;;6203231;28;21598;-62
2022/08/19 17:17:36;;;;;;;;;;;;;;;;;;6208623;28;20133;-61
2022/08/19 17:20:37;;;;;;;43.17;22.65;;;;;;;;;;6206779;28;19936;-56
2022/08/19 17:23:38;;;;;;;47.58;22.75;;;;;;;;;;6200986;28;20481;-53
2022/08/19 17:26:39;;;;;;;50.25;21.33;;;;;;;;;;6205528;28;20140;-51
2022/08/19 17:29:40;;;;;;;46.17;21.90;;;;;;;;;;6205593;28;20069;-54
2022/08/19 17:32:40;;;;;;;;;;;;;;;;;;6210274;28;20041;-60
2022/08/19 17:35:43;;;;;;;44.45;20.35;;;;;;;;;;6204690;28;20060;-62
2022/08/19 17:38:44;;;;;;;34.47;18.40;;;;;;;;;;6209805;28;20042;-54
2022/08/19 17:41:45;;;;;;;33.10;17.25;;;;;;;;;;6216623;28;20450;-55
2022/08/19 17:44:45;;;;;;;40.30;17.80;;;;;;;;;;6206703;28;20038;-49
2022/08/19 17:47:46;;;;;;;38.83;17.77;;;;;;;;;;6218641;28;20076;-55
2022/08/19 17:50:47;;;;;;;41.67;17.13;;;;;;;;;;6229035;28;20053;-49
2022/08/19 17:53:51;;;;;;;36.13;16.42;;;;;;;;;;6227353;28;20234;-58
2022/08/19 17:56:51;;;;;;;35.60;16.58;;;;;;;;;;6227946;28;20044;-54
2022/08/19 17:59:52;;;;;;;35.67;17.00;;;;;;;;;;6226119;28;20408;-51
2022/08/19 18:02:55;;;;;;;35.00;16.40;;;;;;;;;;6227203;28;20313;-52
2022/08/19 18:05:57;;;;;;;35.38;15.57;;;;;;;;;;6224857;28;20531;-52
2022/08/19 18:08:58;;;;;;;;;;;;;;;;;;6224905;28;21540;-50
2022/08/19 18:11:59;;;;;;;26.90;14.40;;;;;;;;;;6225962;28;19925;-52
2022/08/19 18:15:01;;;;;;;29.25;14.15;;;;;;;;;;6223702;28;20591;-57
2022/08/19 18:18:02;;;;;;;25.30;11.23;;;;;;;;;;6222461;28;20065;-50
2022/08/19 18:21:03;;;;;;;24.00;11.30;;;;;;;;;;6223424;28;20560;-49
2022/08/19 18:24:04;;;;;;;24.73;11.90;;;;;;;;;;6204673;28;20696;-59
2022/08/19 18:27:05;;;;;;;;;;;;;;;;;;6227304;28;20045;-51
2022/08/19 18:30:07;;;;;;;23.00;9.57;;;;;;;;;;6224704;28;20254;-54
2022/08/19 18:33:12;;;;;;;19.77;9.07;;;;;;;;;;6225631;28;20132;-54